createdAt,value
2023-11-01T00:02:07.487Z,1.30
2023-11-01T00:05:09.768Z,1.38
2023-11-01T00:08:12.099Z,1.20
2023-11-01T00:11:14.333Z,1.70
2023-11-01T00:14:16.626Z,1.40
2023-11-01T00:17:19.010Z,1.50
2023-11-01T00:20:21.319Z,1.23
2023-11-01T00:23:23.540Z,1.40
2023-11-01T00:26:25.905Z,1.40
2023-11-01T00:29:30.944Z,1.47
2023-11-01T00:32:33.372Z,1.20
2023-11-01T00:35:36.667Z,1.38
2023-11-01T00:38:38.998Z,1.30
2023-11-01T00:41:41.232Z,1.70
2023-11-01T00:44:43.604Z,1.58
2023-11-01T00:47:45.912Z,1.15
2023-11-01T00:50:48.270Z,1.20
2023-11-01T00:53:50.493Z,1.27
2023-11-01T00:56:52.682Z,1.20
2023-11-01T00:59:55.394Z,1.10
2023-11-01T01:02:57.936Z,1.30
2023-11-01T01:06:01.117Z,1.10
2023-11-01T01:09:03.738Z,1.20
2023-11-01T01:12:06.510Z,1.20
2023-11-01T01:15:09.045Z,1.40
2023-11-01T01:18:11.669Z,1.40
2023-11-01T01:21:16.848Z,1.30
2023-11-01T01:24:19.062Z,1.00
2023-11-01T01:27:21.243Z,1.20
2023-11-01T01:30:23.466Z,1.07
2023-11-01T01:33:28.359Z,0.98
2023-11-01T01:36:30.638Z,1.13
2023-11-01T01:39:32.830Z,1.23
2023-11-01T01:42:35.123Z,1.10
2023-11-01T01:45:37.687Z,1.00
2023-11-01T01:48:40.933Z,1.20
2023-11-01T01:51:43.547Z,1.00
2023-11-01T01:54:45.780Z,1.52
2023-11-01T01:57:48.106Z,0.90
2023-11-01T02:00:51.449Z,1.07
2023-11-01T02:03:53.728Z,1.15
2023-11-01T02:06:55.975Z,0.80
2023-11-01T02:09:58.174Z,0.90
2023-11-01T02:13:13.712Z,1.30
2023-11-01T02:16:15.917Z,0.90
2023-11-01T02:19:18.357Z,1.02
2023-11-01T02:22:20.749Z,1.07
2023-11-01T02:25:23.062Z,1.08
2023-11-01T02:28:25.288Z,0.90
2023-11-01T02:31:27.616Z,1.10
2023-11-01T02:34:30.146Z,1.00
2023-11-01T02:37:32.377Z,1.15
2023-11-01T02:40:36.203Z,0.90
2023-11-01T02:43:38.353Z,0.80
2023-11-01T02:46:40.631Z,1.00
2023-11-01T02:49:42.814Z,1.00
2023-11-01T02:52:45.010Z,0.70
2023-11-01T02:55:47.155Z,1.25
2023-11-01T02:58:49.322Z,1.05
2023-11-01T03:01:52.147Z,0.83
2023-11-01T03:04:54.338Z,0.95
2023-11-01T03:07:57.473Z,1.15
2023-11-01T03:10:59.818Z,1.10
2023-11-01T03:14:02.068Z,1.40
2023-11-01T03:17:04.853Z,1.42
2023-11-01T03:20:14.591Z,1.20
2023-11-01T03:23:16.834Z,1.27
2023-11-01T03:26:19.168Z,1.40
2023-11-01T03:29:22.000Z,1.33
2023-11-01T03:32:24.286Z,1.50
2023-11-01T03:35:27.182Z,1.40
2023-11-01T03:38:29.433Z,1.40
2023-11-01T03:41:32.121Z,1.45
2023-11-01T03:44:35.179Z,1.80
2023-11-01T03:47:37.526Z,1.40
2023-11-01T03:50:39.802Z,1.27
2023-11-01T03:53:42.067Z,1.30
2023-11-01T03:56:44.486Z,1.38
2023-11-01T03:59:46.928Z,1.35
2023-11-01T04:02:53.504Z,1.13
2023-11-01T04:05:56.172Z,1.00
2023-11-01T04:09:00.090Z,1.20
2023-11-01T04:12:02.250Z,1.17
2023-11-01T04:15:07.533Z,1.20
2023-11-01T04:18:09.789Z,1.20
2023-11-01T04:21:12.073Z,1.20
2023-11-01T04:24:14.892Z,1.10
2023-11-01T04:27:17.071Z,1.10
2023-11-01T04:30:19.393Z,0.95
2023-11-01T04:33:21.572Z,1.20
2023-11-01T04:36:26.546Z,1.20
2023-11-01T04:39:28.809Z,1.00
2023-11-01T04:42:31.010Z,1.20
2023-11-01T04:45:33.218Z,1.13
2023-11-01T04:48:35.412Z,0.90
2023-11-01T04:51:37.656Z,0.90
2023-11-01T04:54:39.876Z,1.00
2023-11-01T04:57:44.880Z,0.88
2023-11-01T05:00:47.068Z,1.10
2023-11-01T05:03:49.912Z,0.90
2023-11-01T05:06:52.627Z,0.90
2023-11-01T05:09:54.793Z,1.00
2023-11-01T05:12:58.562Z,1.08
2023-11-01T05:16:00.746Z,1.20
2023-11-01T05:19:02.973Z,1.00
2023-11-01T05:22:05.132Z,1.30
2023-11-01T05:25:14.871Z,1.00
2023-11-01T05:28:17.405Z,1.38
2023-11-01T05:31:19.612Z,1.02
2023-11-01T05:34:21.812Z,1.27
2023-11-01T05:37:24.001Z,0.93
2023-11-01T05:40:26.182Z,1.10
2023-11-01T05:43:28.369Z,1.08
2023-11-01T05:46:30.733Z,1.50
2023-11-01T05:49:33.034Z,1.80
2023-11-01T05:52:35.677Z,1.98
2023-11-01T05:55:48.960Z,1.63
2023-11-01T05:59:00.798Z,1.60
2023-11-01T06:02:03.025Z,1.60
2023-11-01T06:05:05.668Z,1.80
2023-11-01T06:08:10.210Z,1.23
2023-11-01T06:11:12.558Z,1.25
2023-11-01T06:14:14.987Z,1.80
2023-11-01T06:17:17.414Z,1.42
2023-11-01T06:20:19.669Z,1.65
2023-11-01T06:23:21.890Z,1.65
2023-11-01T06:26:24.128Z,1.60
2023-11-01T06:29:26.450Z,1.52
2023-11-01T06:32:28.637Z,1.48
2023-11-01T06:35:30.829Z,1.33
2023-11-01T06:38:33.560Z,1.40
2023-11-01T06:41:35.831Z,1.15
2023-11-01T06:44:38.109Z,1.67
2023-11-01T06:47:40.485Z,1.67
2023-11-01T06:50:42.992Z,1.55
2023-11-01T06:53:45.247Z,1.67
2023-11-01T06:56:47.931Z,1.50
2023-11-01T06:59:50.149Z,1.48
2023-11-01T07:02:52.519Z,1.10
2023-11-01T07:05:54.734Z,1.20
2023-11-01T07:08:57.289Z,1.45
2023-11-01T07:11:59.547Z,1.38
2023-11-01T07:15:01.748Z,1.10
2023-11-01T07:18:04.186Z,1.52
2023-11-01T07:21:07.037Z,1.20
2023-11-01T07:24:09.419Z,1.45
2023-11-01T07:27:11.615Z,1.37
2023-11-01T07:30:13.952Z,1.20
2023-11-01T07:33:16.271Z,1.17
2023-11-01T07:36:19.088Z,1.30
2023-11-01T07:39:21.275Z,1.30
2023-11-01T07:42:23.503Z,1.13
2023-11-01T07:45:25.713Z,1.40
2023-11-01T07:48:27.968Z,1.10
2023-11-01T07:51:30.475Z,1.38
2023-11-01T07:54:33.176Z,1.20
2023-11-01T07:57:35.559Z,1.37
2023-11-01T08:00:37.722Z,1.05
2023-11-01T08:03:40.180Z,1.10
2023-11-01T08:06:42.466Z,1.10
2023-11-01T08:09:45.313Z,1.20
2023-11-01T08:12:47.578Z,1.20
2023-11-01T08:15:50.477Z,1.08
2023-11-01T08:50:43.087Z,1.15
2023-11-01T09:06:01.397Z,1.38
2023-11-01T09:21:44.282Z,0.90
2023-11-01T09:25:47.920Z,0.98
2023-11-01T09:41:17.834Z,1.30
2023-11-01T09:52:40.688Z,1.10
2023-11-01T09:56:18.468Z,0.98
2023-11-01T10:11:19.631Z,0.90
2023-11-01T10:15:36.898Z,0.90
2023-11-01T10:27:41.222Z,0.90
2023-11-01T10:32:12.446Z,1.08
2023-11-01T10:35:50.901Z,0.68
2023-11-01T10:43:43.414Z,0.77
2023-11-01T10:55:07.582Z,0.80
2023-11-01T10:59:00.012Z,0.90
2023-11-01T11:10:43.183Z,0.60
2023-11-01T11:19:02.389Z,0.57
2023-11-01T11:31:20.118Z,0.20
2023-11-01T11:59:47.685Z,0.47
2023-11-01T12:15:53.012Z,0.22
2023-11-01T12:23:23.553Z,0.50
2023-11-01T12:32:11.960Z,0.30
2023-11-01T12:49:16.137Z,0.10
2023-11-01T12:57:01.086Z,0.10
2023-11-01T13:09:26.911Z,0.20
2023-11-01T13:13:35.409Z,0.32
2023-11-01T13:17:19.076Z,0.20
2023-11-01T13:25:43.165Z,0.30
2023-11-01T13:30:07.720Z,0.30
2023-11-01T13:56:02.152Z,0.28
2023-11-01T14:07:22.244Z,0.28
2023-11-01T14:19:13.197Z,0.40
2023-11-01T15:00:18.591Z,0.60
2023-11-01T15:31:48.215Z,0.25
2023-11-01T15:56:52.638Z,0.73
2023-11-01T16:20:37.673Z,2.60
2023-11-01T16:23:55.662Z,2.00
2023-11-01T16:27:23.097Z,2.65
2023-11-01T16:39:47.875Z,3.85
2023-11-01T17:51:16.659Z,2.00
2023-11-01T18:06:46.926Z,2.03
2023-11-01T18:14:30.404Z,1.95
2023-11-01T18:38:33.925Z,1.83
2023-11-01T18:50:44.034Z,1.70
2023-11-01T18:54:41.568Z,1.73
2023-11-01T19:02:23.669Z,1.60
2023-11-01T19:26:29.630Z,1.88
2023-11-01T19:34:22.280Z,2.00
2023-11-01T19:42:19.810Z,1.95
2023-11-01T19:50:05.223Z,1.70
2023-11-01T19:57:51.274Z,2.10
2023-11-01T20:01:40.383Z,2.10
2023-11-01T20:05:27.220Z,1.88
2023-11-01T20:09:05.409Z,2.17
2023-11-01T20:20:45.770Z,2.20
2023-11-01T20:24:37.553Z,2.33
2023-11-01T20:40:14.297Z,2.70
2023-11-01T20:48:06.159Z,3.17
2023-11-01T21:00:11.195Z,3.40
2023-11-01T21:24:54.048Z,3.22
2023-11-01T21:37:32.026Z,3.10
2023-11-01T21:45:29.121Z,2.67
2023-11-01T21:49:23.059Z,2.70
2023-11-01T22:01:40.582Z,2.80
2023-11-01T22:17:52.201Z,3.63
2023-11-01T22:21:16.492Z,3.50
2023-11-01T22:24:52.409Z,4.13
2023-11-01T22:36:27.185Z,3.95
2023-11-01T23:00:36.154Z,3.40
2023-11-01T23:04:59.016Z,3.08
2023-11-01T23:36:57.156Z,3.40
2023-11-01T23:49:48.463Z,3.30
